createdAt,value
2022-09-20T00:00:52.294Z,99.90
2022-09-20T00:03:18.951Z,99.90
2022-09-20T00:05:46.181Z,99.90
2022-09-20T00:08:15.085Z,99.90
2022-09-20T00:10:42.969Z,99.90
2022-09-20T00:13:11.481Z,99.90
2022-09-20T00:15:42.707Z,99.90
2022-09-20T00:18:09.333Z,99.90
2022-09-20T00:20:35.938Z,99.90
2022-09-20T00:23:02.617Z,99.90
2022-09-20T00:25:29.842Z,99.90
2022-09-20T00:27:56.546Z,99.90
2022-09-20T00:30:23.823Z,99.90
2022-09-20T00:32:50.452Z,99.90
2022-09-20T00:35:17.052Z,99.90
2022-09-20T00:37:43.826Z,99.90
2022-09-20T00:40:13.055Z,99.90
2022-09-20T00:42:40.013Z,99.90
2022-09-20T00:45:08.327Z,99.90
2022-09-20T00:47:40.907Z,99.90
2022-09-20T00:50:07.619Z,99.90
2022-09-20T00:52:35.645Z,99.90
2022-09-20T00:55:03.770Z,99.90
2022-09-20T00:57:35.266Z,99.90
2022-09-20T01:00:06.808Z,99.90
2022-09-20T01:02:35.812Z,99.90
2022-09-20T01:05:02.596Z,99.90
2022-09-20T01:07:29.850Z,99.90
2022-09-20T01:09:56.940Z,99.90
2022-09-20T01:12:25.970Z,99.90
2022-09-20T01:14:53.172Z,99.90
2022-09-20T01:17:21.634Z,99.90
2022-09-20T01:19:51.271Z,99.90
2022-09-20T01:22:33.958Z,99.90
2022-09-20T01:25:06.195Z,99.90
2022-09-20T01:27:38.804Z,99.90
2022-09-20T01:30:07.389Z,99.90
2022-09-20T01:32:46.932Z,99.90
2022-09-20T01:35:15.972Z,99.90
2022-09-20T01:37:52.099Z,99.90
2022-09-20T01:40:22.216Z,99.90
2022-09-20T01:42:58.985Z,99.90
2022-09-20T01:45:29.897Z,99.90
2022-09-20T01:48:05.676Z,99.30
2022-09-20T01:50:35.407Z,99.90
2022-09-20T01:53:02.027Z,99.90
2022-09-20T01:55:31.834Z,40.90
2022-09-20T01:58:16.313Z,31.30
2022-09-20T02:01:07.873Z,1.00
2022-09-20T02:04:13.439Z,38.90
2022-09-20T02:06:50.928Z,90.50
2022-09-20T02:09:35.956Z,72.20
2022-09-20T02:12:05.337Z,75.10
2022-09-20T02:14:41.819Z,95.30
2022-09-20T02:17:14.123Z,99.90
2022-09-20T02:19:40.709Z,99.90
2022-09-20T02:22:07.267Z,99.90
2022-09-20T02:24:39.994Z,99.90
2022-09-20T02:27:18.664Z,99.90
2022-09-20T02:29:51.429Z,99.90
2022-09-20T02:32:24.959Z,99.90
2022-09-20T02:34:59.059Z,99.90
2022-09-20T02:37:28.709Z,99.90
2022-09-20T02:40:14.262Z,75.20
2022-09-20T02:42:46.998Z,1.00
2022-09-20T02:45:32.524Z,1.00
2022-09-20T02:48:03.029Z,1.00
2022-09-20T02:50:45.396Z,1.00
2022-09-20T02:53:15.217Z,1.00
2022-09-20T02:55:54.741Z,1.00
2022-09-20T02:58:40.097Z,1.00
2022-09-20T03:01:17.767Z,1.00
2022-09-20T03:04:03.488Z,1.00
2022-09-20T03:06:48.863Z,1.00
2022-09-20T03:09:28.229Z,1.00
2022-09-20T03:11:57.813Z,1.00
2022-09-20T03:14:27.599Z,1.00
2022-09-20T03:17:12.826Z,1.00
2022-09-20T03:19:53.202Z,1.00
2022-09-20T03:22:22.909Z,1.00
2022-09-20T03:24:55.650Z,5.50
2022-09-20T03:27:39.545Z,35.50
2022-09-20T03:30:21.470Z,37.00
2022-09-20T03:33:06.794Z,45.00
2022-09-20T03:35:36.221Z,50.10
2022-09-20T03:38:21.905Z,57.00
2022-09-20T03:40:51.560Z,31.80
2022-09-20T03:43:18.214Z,29.70
2022-09-20T03:45:53.349Z,4.90
2022-09-20T03:48:31.629Z,1.00
2022-09-20T03:51:04.374Z,1.00
2022-09-20T03:53:40.806Z,1.00
2022-09-20T03:56:26.373Z,1.00
2022-09-20T03:59:11.992Z,1.00
2022-09-20T04:01:47.734Z,1.00
2022-09-20T04:04:23.815Z,1.00
2022-09-20T04:07:01.223Z,1.00
2022-09-20T04:09:33.882Z,1.00
2022-09-20T04:12:00.488Z,1.00
2022-09-20T04:14:33.607Z,1.00
2022-09-20T04:17:18.854Z,1.00
2022-09-20T04:19:48.913Z,1.00
2022-09-20T04:22:16.239Z,1.00
2022-09-20T04:25:12.381Z,1.00
2022-09-20T04:27:46.152Z,1.00
2022-09-20T04:30:19.463Z,1.00
2022-09-20T04:32:52.372Z,1.00
2022-09-20T04:35:56.449Z,1.00
2022-09-20T04:38:23.307Z,1.00
2022-09-20T04:40:55.885Z,1.00
2022-09-20T04:43:22.472Z,1.00
2022-09-20T04:46:03.836Z,1.00
2022-09-20T04:48:39.607Z,1.00
2022-09-20T04:51:09.214Z,1.00
2022-09-20T04:53:38.917Z,1.00
2022-09-20T04:56:17.821Z,1.00
2022-09-20T04:59:05.985Z,1.00
2022-09-20T05:01:35.740Z,1.00
2022-09-20T05:04:02.398Z,99.90
2022-09-20T05:06:39.143Z,1.00
2022-09-20T05:09:24.581Z,99.90
2022-09-20T05:11:57.297Z,24.30
2022-09-20T05:14:48.988Z,99.90
2022-09-20T05:17:21.879Z,99.90
2022-09-20T05:20:06.577Z,99.90
2022-09-20T05:22:48.626Z,99.90
2022-09-20T05:25:33.655Z,99.90
2022-09-20T05:28:07.867Z,99.90
2022-09-20T05:30:49.017Z,99.90
2022-09-20T05:33:29.772Z,99.90
2022-09-20T05:36:13.620Z,99.90
2022-09-20T05:38:52.020Z,99.90
2022-09-20T05:41:34.041Z,99.90
2022-09-20T05:44:16.053Z,6.50
2022-09-20T05:46:56.556Z,99.90
2022-09-20T05:49:26.056Z,1.00
2022-09-20T05:52:06.924Z,1.00
2022-09-20T05:54:47.426Z,1.00
2022-09-20T05:57:14.984Z,1.00
2022-09-20T05:59:56.922Z,75.40
2022-09-20T06:02:28.560Z,99.90
2022-09-20T06:05:16.931Z,1.00
2022-09-20T06:07:47.226Z,1.00
2022-09-20T06:10:31.447Z,1.00
2022-09-20T06:13:15.756Z,1.00
2022-09-20T06:15:50.673Z,1.00
2022-09-20T06:18:22.640Z,1.00
2022-09-20T06:21:08.252Z,1.00
2022-09-20T06:23:36.079Z,1.00
2022-09-20T06:26:07.846Z,1.00
2022-09-20T06:28:40.931Z,1.00
2022-09-20T06:31:09.170Z,99.90
2022-09-20T06:33:44.981Z,47.40
2022-09-20T06:36:43.641Z,1.00
2022-09-20T06:39:34.775Z,99.90
2022-09-20T06:42:01.609Z,99.90
2022-09-20T06:44:28.360Z,99.90
2022-09-20T06:46:55.014Z,99.90
2022-09-20T06:49:22.419Z,99.90
2022-09-20T06:51:52.491Z,99.90
2022-09-20T06:54:20.716Z,1.00
2022-09-20T06:56:48.576Z,1.00
2022-09-20T06:59:15.326Z,1.00
2022-09-20T07:01:42.276Z,49.60
2022-09-20T07:04:09.843Z,1.00
2022-09-20T07:06:36.449Z,1.00
2022-09-20T07:09:03.618Z,1.00
2022-09-20T07:11:32.829Z,1.00
2022-09-20T07:13:59.474Z,1.00
2022-09-20T07:16:26.495Z,1.00
2022-09-20T07:18:53.565Z,99.90
2022-09-20T07:21:20.940Z,99.90
2022-09-20T07:23:51.349Z,99.90
2022-09-20T07:26:22.548Z,99.90
2022-09-20T07:28:49.942Z,1.00
2022-09-20T07:31:17.673Z,1.00
2022-09-20T07:33:44.851Z,1.00
2022-09-20T07:36:14.430Z,99.90
2022-09-20T07:38:42.068Z,1.00
2022-09-20T07:41:09.686Z,99.90
2022-09-20T07:43:36.580Z,1.00
2022-09-20T07:46:03.421Z,1.00
2022-09-20T07:48:31.484Z,49.60
2022-09-20T07:51:08.549Z,99.90
2022-09-20T07:53:35.718Z,1.00
2022-09-20T07:56:10.599Z,99.90
2022-09-20T07:58:37.585Z,1.00
2022-09-20T08:01:06.110Z,99.90
2022-09-20T08:03:33.405Z,1.00
2022-09-20T08:06:00.496Z,99.90
2022-09-20T08:08:27.233Z,99.90
2022-09-20T08:10:55.837Z,1.00
2022-09-20T08:16:10.982Z,99.90
2022-09-20T08:18:37.967Z,1.00
2022-09-20T08:21:06.381Z,99.90
2022-09-20T08:23:40.534Z,99.90
2022-09-20T08:26:09.451Z,1.00
2022-09-20T08:28:36.093Z,1.00
2022-09-20T08:31:10.135Z,1.00
2022-09-20T08:33:39.724Z,99.90
2022-09-20T08:36:13.592Z,99.90
2022-09-20T08:41:31.006Z,99.90
2022-09-20T08:44:02.487Z,99.90
2022-09-20T08:46:34.171Z,1.00
2022-09-20T08:49:03.292Z,1.00
2022-09-20T08:51:32.846Z,99.90
2022-09-20T08:53:59.621Z,99.90
2022-09-20T08:56:31.358Z,99.90
2022-09-20T08:59:00.086Z,99.90
2022-09-20T09:01:29.506Z,99.90
2022-09-20T09:04:07.553Z,99.90
2022-09-20T09:06:34.195Z,99.90
2022-09-20T09:09:00.832Z,99.90
2022-09-20T09:11:28.300Z,99.90
2022-09-20T09:14:26.946Z,99.90
2022-09-20T09:16:54.758Z,99.90
2022-09-20T09:19:33.658Z,99.90
2022-09-20T09:22:02.770Z,99.90
2022-09-20T09:24:31.452Z,99.90
2022-09-20T09:27:17.847Z,99.90
2022-09-20T09:29:54.712Z,99.90
2022-09-20T09:32:28.478Z,99.90
2022-09-20T09:34:56.008Z,99.90
2022-09-20T09:37:28.677Z,99.90
2022-09-20T09:40:12.089Z,99.90
2022-09-20T09:42:48.111Z,99.90
2022-09-20T09:45:26.156Z,99.90
2022-09-20T09:47:53.597Z,99.90
2022-09-20T09:50:22.017Z,99.90
2022-09-20T09:52:59.358Z,99.90
2022-09-20T09:55:32.021Z,99.90
2022-09-20T09:58:06.661Z,99.90
2022-09-20T10:00:35.744Z,99.90
2022-09-20T10:03:11.251Z,99.90
2022-09-20T10:05:41.247Z,99.90
2022-09-20T10:08:16.684Z,99.90
2022-09-20T10:10:44.306Z,99.90
2022-09-20T10:13:10.909Z,99.90
2022-09-20T10:15:53.633Z,99.90
2022-09-20T10:18:32.450Z,99.90
2022-09-20T10:20:59.165Z,99.90
2022-09-20T10:24:01.990Z,99.90
2022-09-20T10:26:32.058Z,99.90
2022-09-20T10:29:11.318Z,99.90
2022-09-20T10:31:44.168Z,99.90
2022-09-20T10:34:17.397Z,99.90
2022-09-20T10:37:00.444Z,99.90
2022-09-20T10:39:27.029Z,99.90
2022-09-20T10:42:24.690Z,99.90
2022-09-20T10:45:09.457Z,99.90
2022-09-20T10:47:46.958Z,99.90
2022-09-20T10:50:13.576Z,99.90
2022-09-20T10:52:52.194Z,99.90
2022-09-20T10:55:32.173Z,99.90
2022-09-20T10:58:17.567Z,99.90
2022-09-20T11:01:01.678Z,99.90
2022-09-20T11:03:43.196Z,99.90
2022-09-20T11:06:12.774Z,99.90
2022-09-20T11:08:40.233Z,98.70
2022-09-20T11:11:09.459Z,99.90
2022-09-20T11:13:54.054Z,99.90
2022-09-20T11:16:25.477Z,99.90
2022-09-20T11:18:58.938Z,99.90
2022-09-20T11:21:28.961Z,99.90
2022-09-20T11:24:07.418Z,99.90
2022-09-20T11:26:39.637Z,99.90
2022-09-20T11:29:22.155Z,99.90
2022-09-20T11:31:50.528Z,99.90
2022-09-20T11:34:23.216Z,99.90
2022-09-20T11:36:59.061Z,99.90
2022-09-20T11:39:34.330Z,99.90
2022-09-20T11:42:01.600Z,99.90
2022-09-20T11:44:28.502Z,99.90
2022-09-20T11:47:07.140Z,99.90
2022-09-20T11:49:39.868Z,99.90
2022-09-20T11:52:06.552Z,99.90
2022-09-20T11:54:39.674Z,99.90
2022-09-20T11:57:08.259Z,99.90
2022-09-20T11:59:37.078Z,99.90
2022-09-20T12:02:05.724Z,99.90
2022-09-20T12:04:34.964Z,99.90
2022-09-20T12:07:08.351Z,99.90
2022-09-20T12:09:39.971Z,99.90
2022-09-20T12:12:36.604Z,98.40
2022-09-20T12:15:06.068Z,99.90
2022-09-20T12:17:48.095Z,99.90
2022-09-20T12:20:34.355Z,99.90
2022-09-20T12:23:20.904Z,95.30
2022-09-20T12:26:00.593Z,37.40
2022-09-20T12:28:34.278Z,95.60
2022-09-20T12:31:19.703Z,99.90
2022-09-20T12:33:57.264Z,85.60
2022-09-20T12:36:24.480Z,99.90
2022-09-20T12:38:59.009Z,99.90
2022-09-20T12:41:28.666Z,99.90
2022-09-20T12:44:00.894Z,99.90
2022-09-20T12:46:41.064Z,99.90
2022-09-20T12:49:55.916Z,99.90
2022-09-20T12:52:43.034Z,95.40
2022-09-20T12:55:11.943Z,99.90
2022-09-20T12:57:39.466Z,99.90
2022-09-20T13:00:07.247Z,99.90
2022-09-20T13:02:53.038Z,99.90
2022-09-20T13:05:38.169Z,99.90
2022-09-20T13:08:13.176Z,88.10
2022-09-20T13:10:45.253Z,87.40
2022-09-20T13:13:20.151Z,99.90
2022-09-20T13:15:52.438Z,93.20
2022-09-20T13:18:19.569Z,99.90
2022-09-20T13:20:46.172Z,99.90
2022-09-20T13:23:18.793Z,99.90
2022-09-20T13:25:45.631Z,99.90
2022-09-20T13:28:26.597Z,99.90
2022-09-20T13:31:13.291Z,99.90
2022-09-20T13:33:40.044Z,99.90
2022-09-20T13:36:07.276Z,99.90
2022-09-20T13:38:34.961Z,99.90
2022-09-20T13:41:10.868Z,99.90
2022-09-20T13:43:41.607Z,99.90
2022-09-20T13:46:18.631Z,99.90
2022-09-20T13:48:48.881Z,99.90
2022-09-20T13:51:25.552Z,99.90
2022-09-20T13:53:52.725Z,96.30
2022-09-20T13:56:29.990Z,99.90
2022-09-20T13:58:58.969Z,99.90
2022-09-20T14:01:25.812Z,99.90
2022-09-20T14:03:53.567Z,99.90
2022-09-20T14:06:27.281Z,99.90
2022-09-20T14:08:54.271Z,99.90
2022-09-20T14:11:25.558Z,99.90
2022-09-20T14:13:54.255Z,99.90
2022-09-20T14:16:23.070Z,99.90
2022-09-20T14:18:49.974Z,99.90
2022-09-20T14:21:35.561Z,99.90
2022-09-20T14:24:23.884Z,99.90
2022-09-20T14:27:00.819Z,99.90
2022-09-20T14:29:38.560Z,99.90
2022-09-20T14:32:12.937Z,69.70
2022-09-20T14:34:40.052Z,99.90
2022-09-20T14:37:10.363Z,99.90
2022-09-20T14:39:44.914Z,99.90
2022-09-20T14:42:33.987Z,99.90
2022-09-20T14:45:01.104Z,99.90
2022-09-20T14:47:28.976Z,99.90
2022-09-20T14:49:55.913Z,99.90
2022-09-20T14:52:25.559Z,99.90
2022-09-20T14:55:19.164Z,99.90
2022-09-20T14:57:46.348Z,99.90
2022-09-20T15:00:15.296Z,99.90
2022-09-20T15:02:45.847Z,99.90
2022-09-20T15:05:23.992Z,99.90
2022-09-20T15:07:50.613Z,99.90
2022-09-20T15:10:17.262Z,99.90
2022-09-20T15:12:43.910Z,99.90
2022-09-20T15:18:22.219Z,99.90
2022-09-20T15:20:49.601Z,99.90
2022-09-20T15:23:16.610Z,99.90
2022-09-20T15:25:43.328Z,99.90
2022-09-20T15:28:12.900Z,99.90
2022-09-20T15:30:39.489Z,99.90
2022-09-20T15:33:06.116Z,99.90
2022-09-20T15:35:32.752Z,99.90
2022-09-20T15:37:59.379Z,99.90
2022-09-20T15:40:26.134Z,99.90
2022-09-20T15:43:00.055Z,99.90
2022-09-20T15:45:28.121Z,99.90
2022-09-20T15:47:55.063Z,99.70
2022-09-20T15:50:25.628Z,99.90
2022-09-20T15:52:54.073Z,99.90
2022-09-20T15:55:23.486Z,99.90
2022-09-20T15:57:50.178Z,98.40
2022-09-20T16:00:18.128Z,99.90
2022-09-20T16:02:48.378Z,99.90
2022-09-20T16:05:15.157Z,99.90
2022-09-20T16:07:42.407Z,99.90
2022-09-20T16:10:09.105Z,99.90
2022-09-20T16:12:35.802Z,99.90
2022-09-20T16:15:02.428Z,99.90
2022-09-20T16:17:47.563Z,99.90
2022-09-20T16:20:14.252Z,99.90
2022-09-20T16:22:40.979Z,99.90
2022-09-20T16:25:08.715Z,99.90
2022-09-20T16:27:35.326Z,99.90
2022-09-20T16:30:02.440Z,99.90
2022-09-20T16:32:29.321Z,99.90
2022-09-20T16:34:57.996Z,99.90
2022-09-20T16:37:25.007Z,99.90
2022-09-20T16:39:51.633Z,99.90
2022-09-20T16:42:18.642Z,99.90
2022-09-20T16:44:45.466Z,99.90
2022-09-20T16:47:18.211Z,99.90
2022-09-20T16:49:48.262Z,99.90
2022-09-20T16:52:14.862Z,99.90
2022-09-20T16:54:41.475Z,99.90
2022-09-20T16:57:08.191Z,99.90
2022-09-20T16:59:34.865Z,99.90
2022-09-20T17:02:01.551Z,99.90
2022-09-20T17:04:28.354Z,99.90
2022-09-20T17:06:55.654Z,99.90
2022-09-20T17:09:22.352Z,99.90
2022-09-20T17:11:50.176Z,99.90
2022-09-20T17:14:18.632Z,99.90
2022-09-20T17:16:49.181Z,92.40
2022-09-20T17:19:18.551Z,99.90
2022-09-20T17:21:49.363Z,99.90
2022-09-20T17:24:17.198Z,99.90
2022-09-20T17:26:45.588Z,99.90
2022-09-20T17:29:15.562Z,99.90
2022-09-20T17:31:43.981Z,93.90
2022-09-20T17:34:11.454Z,99.90
2022-09-20T17:36:45.495Z,96.50
2022-09-20T17:39:13.207Z,99.90
2022-09-20T17:41:40.692Z,99.90
2022-09-20T17:44:12.158Z,99.90
2022-09-20T17:46:39.968Z,99.90
2022-09-20T17:49:16.811Z,43.90
2022-09-20T17:51:50.619Z,99.90
2022-09-20T17:54:17.533Z,99.90
2022-09-20T17:56:46.415Z,99.90
2022-09-20T17:59:15.669Z,99.90
2022-09-20T18:01:43.166Z,99.90
2022-09-20T18:04:10.511Z,99.90
2022-09-20T18:06:44.353Z,99.90
2022-09-20T18:09:12.179Z,99.90
2022-09-20T18:11:41.242Z,99.90
2022-09-20T18:14:10.303Z,99.90
2022-09-20T18:16:37.687Z,99.90
2022-09-20T18:19:05.772Z,99.90
2022-09-20T18:21:33.576Z,99.90
2022-09-20T18:24:01.013Z,99.90
2022-09-20T18:26:30.028Z,99.90
2022-09-20T18:28:56.973Z,99.90
2022-09-20T18:31:25.375Z,99.90
2022-09-20T18:33:52.675Z,99.90
2022-09-20T18:36:19.561Z,99.90
2022-09-20T18:38:46.241Z,99.90
2022-09-20T18:41:14.484Z,99.90
2022-09-20T18:43:44.203Z,99.90
2022-09-20T18:46:11.889Z,99.90
2022-09-20T18:48:41.320Z,99.90
2022-09-20T18:51:08.445Z,99.90
2022-09-20T18:53:36.640Z,99.90
2022-09-20T18:56:07.407Z,99.90
2022-09-20T18:58:34.789Z,99.90
2022-09-20T19:01:16.534Z,99.90
2022-09-20T19:03:45.953Z,99.90
2022-09-20T19:06:12.900Z,99.90
2022-09-20T19:08:47.170Z,99.90
2022-09-20T19:11:24.100Z,99.90
2022-09-20T19:14:07.814Z,99.90
2022-09-20T19:16:36.975Z,99.90
2022-09-20T19:19:22.445Z,99.90
2022-09-20T19:22:03.411Z,99.90
2022-09-20T19:24:56.936Z,99.90
2022-09-20T19:27:26.184Z,99.90
2022-09-20T19:29:53.302Z,99.90
2022-09-20T19:32:21.720Z,99.90
2022-09-20T19:34:52.165Z,99.90
2022-09-20T19:37:29.616Z,99.90
2022-09-20T19:39:56.294Z,99.90
2022-09-20T19:42:38.508Z,99.90
2022-09-20T19:45:21.322Z,99.90
2022-09-20T19:47:57.225Z,99.90
2022-09-20T19:50:29.535Z,99.90
2022-09-20T19:52:56.462Z,99.90
2022-09-20T19:55:23.370Z,99.90
2022-09-20T19:57:50.166Z,99.90
2022-09-20T20:00:20.933Z,99.90
2022-09-20T20:02:48.096Z,99.90
2022-09-20T20:05:19.495Z,99.90
2022-09-20T20:07:51.489Z,99.90
2022-09-20T20:10:22.262Z,99.90
2022-09-20T20:13:00.476Z,99.90
2022-09-20T20:15:37.771Z,99.90
2022-09-20T20:18:19.840Z,99.90
2022-09-20T20:20:52.476Z,99.90
2022-09-20T20:23:37.994Z,99.90
2022-09-20T20:26:05.775Z,99.90
2022-09-20T20:28:32.485Z,99.90
2022-09-20T20:31:02.218Z,99.90
2022-09-20T20:33:29.492Z,99.90
2022-09-20T20:35:57.432Z,99.90
2022-09-20T20:38:26.332Z,99.90
2022-09-20T20:41:06.249Z,99.90
2022-09-20T20:43:34.879Z,99.90
2022-09-20T20:46:01.871Z,99.90
2022-09-20T20:48:29.098Z,99.90
2022-09-20T20:51:19.091Z,99.90
2022-09-20T20:53:49.833Z,99.90
2022-09-20T20:56:20.857Z,99.90
2022-09-20T20:58:48.525Z,99.90
2022-09-20T21:01:18.100Z,99.90
2022-09-20T21:03:48.821Z,99.90
2022-09-20T21:06:15.876Z,99.90
2022-09-20T21:08:47.045Z,99.90
2022-09-20T21:11:20.464Z,99.90
2022-09-20T21:13:48.778Z,99.90
2022-09-20T21:16:17.110Z,99.90
2022-09-20T21:18:44.878Z,99.90
2022-09-20T21:21:16.120Z,99.90
2022-09-20T21:23:43.673Z,99.90
2022-09-20T21:26:12.783Z,99.90
2022-09-20T21:28:41.314Z,99.90
2022-09-20T21:31:08.768Z,99.90
2022-09-20T21:33:37.072Z,99.90
2022-09-20T21:36:04.465Z,99.90
2022-09-20T21:38:34.380Z,99.90
2022-09-20T21:41:11.864Z,99.90
2022-09-20T21:43:42.857Z,99.90
2022-09-20T21:46:13.333Z,99.90
2022-09-20T21:48:40.230Z,99.90
2022-09-20T21:51:08.213Z,99.90
2022-09-20T21:53:35.200Z,99.90
2022-09-20T21:56:03.213Z,99.90
2022-09-20T21:58:30.207Z,99.90
2022-09-20T22:00:57.725Z,99.90
2022-09-20T22:03:24.601Z,99.90
2022-09-20T22:05:51.185Z,99.90
2022-09-20T22:08:17.961Z,99.90
2022-09-20T22:10:54.234Z,99.90
2022-09-20T22:13:20.880Z,99.90
2022-09-20T22:15:47.524Z,99.90
2022-09-20T22:18:14.180Z,99.90
2022-09-20T22:20:40.840Z,99.90
2022-09-20T22:23:07.665Z,99.90
2022-09-20T22:25:34.284Z,99.90
2022-09-20T22:28:00.993Z,99.90
2022-09-20T22:30:27.663Z,99.90
2022-09-20T22:32:54.427Z,99.90
2022-09-20T22:35:21.121Z,99.90
2022-09-20T22:37:47.700Z,99.90
2022-09-20T22:40:14.492Z,99.90
2022-09-20T22:42:41.190Z,99.90
2022-09-20T22:45:07.950Z,99.90
2022-09-20T22:47:34.566Z,99.90
2022-09-20T22:52:51.645Z,99.90
2022-09-20T22:55:18.294Z,1.00
2022-09-20T22:57:44.893Z,1.00
2022-09-20T23:00:11.750Z,99.90
2022-09-20T23:02:38.458Z,99.90
2022-09-20T23:05:06.348Z,99.90
2022-09-20T23:07:33.216Z,99.90
2022-09-20T23:09:59.870Z,99.90
2022-09-20T23:12:26.501Z,99.90
2022-09-20T23:14:53.130Z,1.00
2022-09-20T23:17:19.709Z,1.00
2022-09-20T23:19:46.340Z,99.90
2022-09-20T23:22:12.990Z,99.90
2022-09-20T23:24:39.593Z,99.90
2022-09-20T23:27:06.814Z,99.90
2022-09-20T23:29:33.741Z,99.90
2022-09-20T23:32:00.386Z,99.90
2022-09-20T23:34:27.014Z,99.90
2022-09-20T23:36:53.612Z,99.90
2022-09-20T23:39:20.237Z,99.90
2022-09-20T23:41:50.865Z,99.90
2022-09-20T23:44:17.890Z,99.90
2022-09-20T23:46:44.640Z,99.90
2022-09-20T23:49:11.251Z,99.90
2022-09-20T23:51:38.298Z,99.90
2022-09-20T23:54:04.988Z,1.00
2022-09-20T23:56:32.062Z,1.00
2022-09-20T23:58:58.701Z,99.90
